sensor_id;sensor_type;location;lat;lon;timestamp;pressure;altitude;pressure_sealevel;temperature;humidity
6393;BME280;3229;42.674;23.282;2022-07-30T00:01:48;94546.34;;;25.71;47.23
6393;BME280;3229;42.674;23.282;2022-07-30T00:04:17;94676.47;;;26.51;47.88
6393;BME280;3229;42.674;23.282;2022-07-30T00:06:44;94533.38;;;25.64;47.16
6393;BME280;3229;42.674;23.282;2022-07-30T00:09:11;94676.66;;;26.61;47.09
6393;BME280;3229;42.674;23.282;2022-07-30T00:11:38;94501.72;;;25.49;47.11
6393;BME280;3229;42.674;23.282;2022-07-30T00:14:05;94671.09;;;26.58;47.04
6393;BME280;3229;42.674;23.282;2022-07-30T00:16:32;94640.59;;;26.40;46.76
6393;BME280;3229;42.674;23.282;2022-07-30T00:18:59;94624.84;;;26.23;47.06
6393;BME280;3229;42.674;23.282;2022-07-30T00:24:43;94621.81;;;26.14;47.36
6393;BME280;3229;42.674;23.282;2022-07-30T00:27:10;94661.34;;;26.41;47.54
6393;BME280;3229;42.674;23.282;2022-07-30T00:29:38;94618.06;;;26.10;47.46
6393;BME280;3229;42.674;23.282;2022-07-30T00:32:05;94659.66;;;26.35;47.66
6393;BME280;3229;42.674;23.282;2022-07-30T00:34:32;94670.63;;;26.32;48.09
6393;BME280;3229;42.674;23.282;2022-07-30T00:36:59;94659.25;;;26.26;48.12
6393;BME280;3229;42.674;23.282;2022-07-30T00:39:26;94657.91;;;26.24;48.14
6393;BME280;3229;42.674;23.282;2022-07-30T00:41:58;94609.75;;;25.85;48.18
6393;BME280;3229;42.674;23.282;2022-07-30T00:44:25;94606.59;;;25.83;47.99
6393;BME280;3229;42.674;23.282;2022-07-30T00:46:52;94663.75;;;26.14;48.36
6393;BME280;3229;42.674;23.282;2022-07-30T00:49:19;94665.59;;;26.14;48.21
6393;BME280;3229;42.674;23.282;2022-07-30T00:51:46;94621.75;;;25.81;48.38
6393;BME280;3229;42.674;23.282;2022-07-30T00:54:13;94659.47;;;26.08;48.76
6393;BME280;3229;42.674;23.282;2022-07-30T00:56:41;94638.91;;;25.88;48.73
6393;BME280;3229;42.674;23.282;2022-07-30T00:59:09;94629.38;;;25.82;49.22
6393;BME280;3229;42.674;23.282;2022-07-30T01:01:36;94532.78;;;25.17;49.43
6393;BME280;3229;42.674;23.282;2022-07-30T01:04:03;94517.09;;;25.05;50.02
6393;BME280;3229;42.674;23.282;2022-07-30T01:06:32;94663.16;;;25.95;50.52
6393;BME280;3229;42.674;23.282;2022-07-30T01:08:59;94659.19;;;25.93;50.98
6393;BME280;3229;42.674;23.282;2022-07-30T01:11:31;94587.69;;;25.40;51.33
6393;BME280;3229;42.674;23.282;2022-07-30T01:13:59;94648.97;;;25.80;51.87
6393;BME280;3229;42.674;23.282;2022-07-30T01:16:28;94656.38;;;25.83;51.72
6393;BME280;3229;42.674;23.282;2022-07-30T01:18:57;94656.13;;;25.72;52.23
6393;BME280;3229;42.674;23.282;2022-07-30T01:21:47;94653.06;;;25.87;50.64
6393;BME280;3229;42.674;23.282;2022-07-30T01:24:26;94657.03;;;25.90;50.08
6393;BME280;3229;42.674;23.282;2022-07-30T01:26:56;94659.88;;;25.88;49.19
6393;BME280;3229;42.674;23.282;2022-07-30T01:29:26;94650.91;;;25.84;50.55
6393;BME280;3229;42.674;23.282;2022-07-30T01:31:56;94591.81;;;25.36;51.02
6393;BME280;3229;42.674;23.282;2022-07-30T01:34:26;94654.09;;;25.74;51.49
6393;BME280;3229;42.674;23.282;2022-07-30T01:36:55;94657.97;;;25.72;51.85
6393;BME280;3229;42.674;23.282;2022-07-30T01:39:23;94627.63;;;25.47;51.76
6393;BME280;3229;42.674;23.282;2022-07-30T01:41:51;94648.22;;;25.56;52.32
6393;BME280;3229;42.674;23.282;2022-07-30T01:44:21;94653.22;;;25.57;52.44
6393;BME280;3229;42.674;23.282;2022-07-30T01:46:49;94585.56;;;25.02;52.61
6393;BME280;3229;42.674;23.282;2022-07-30T01:49:18;94441.25;;;24.06;52.53
6393;BME280;3229;42.674;23.282;2022-07-30T01:51:46;94660.88;;;25.47;53.01
6393;BME280;3229;42.674;23.282;2022-07-30T01:54:16;94519.88;;;24.51;53.24
6393;BME280;3229;42.674;23.282;2022-07-30T01:56:44;94660.44;;;25.38;53.26
6393;BME280;3229;42.674;23.282;2022-07-30T01:59:15;94632.72;;;25.14;53.60
6393;BME280;3229;42.674;23.282;2022-07-30T02:01:45;94661.81;;;25.29;53.96
6393;BME280;3229;42.674;23.282;2022-07-30T02:04:13;94664.91;;;25.26;54.39
6393;BME280;3229;42.674;23.282;2022-07-30T02:06:42;94658.28;;;25.23;53.80
6393;BME280;3229;42.674;23.282;2022-07-30T02:09:10;94611.41;;;24.87;54.47
6393;BME280;3229;42.674;23.282;2022-07-30T02:11:43;94656.03;;;25.15;54.46
6393;BME280;3229;42.674;23.282;2022-07-30T02:14:31;94654.88;;;25.11;54.77
6393;BME280;3229;42.674;23.282;2022-07-30T02:17:01;94590.84;;;24.67;54.82
6393;BME280;3229;42.674;23.282;2022-07-30T02:19:32;94603.56;;;24.75;55.26
6393;BME280;3229;42.674;23.282;2022-07-30T02:22:04;94650.19;;;25.01;55.64
6393;BME280;3229;42.674;23.282;2022-07-30T02:24:33;94640.19;;;24.98;55.27
6393;BME280;3229;42.674;23.282;2022-07-30T02:27:11;94645.88;;;24.95;55.86
6393;BME280;3229;42.674;23.282;2022-07-30T02:29:40;94641.31;;;24.91;56.28
6393;BME280;3229;42.674;23.282;2022-07-30T02:32:12;94619.97;;;24.70;55.73
6393;BME280;3229;42.674;23.282;2022-07-30T02:34:40;94641.78;;;24.88;54.79
6393;BME280;3229;42.674;23.282;2022-07-30T02:37:10;94618.94;;;24.71;55.79
6393;BME280;3229;42.674;23.282;2022-07-30T02:39:40;94638.47;;;24.81;55.97
6393;BME280;3229;42.674;23.282;2022-07-30T02:42:09;94621.63;;;24.65;55.88
6393;BME280;3229;42.674;23.282;2022-07-30T02:44:36;94640.19;;;24.75;55.86
6393;BME280;3229;42.674;23.282;2022-07-30T02:47:04;94639.84;;;24.71;56.13
6393;BME280;3229;42.674;23.282;2022-07-30T02:49:34;94611.03;;;24.48;56.52
6393;BME280;3229;42.674;23.282;2022-07-30T02:52:03;94641.56;;;24.66;55.63
6393;BME280;3229;42.674;23.282;2022-07-30T02:54:36;94637.31;;;24.65;54.51
6393;BME280;3229;42.674;23.282;2022-07-30T02:57:05;94630.06;;;24.67;54.49
6393;BME280;3229;42.674;23.282;2022-07-30T02:59:33;94629.72;;;24.63;54.95
6393;BME280;3229;42.674;23.282;2022-07-30T03:02:02;94599.13;;;24.40;56.42
6393;BME280;3229;42.674;23.282;2022-07-30T03:04:30;94629.59;;;24.58;56.85
6393;BME280;3229;42.674;23.282;2022-07-30T03:06:59;94632.09;;;24.53;57.52
6393;BME280;3229;42.674;23.282;2022-07-30T03:09:27;94626.88;;;24.53;57.52
6393;BME280;3229;42.674;23.282;2022-07-30T03:11:56;94555.72;;;24.09;57.83
6393;BME280;3229;42.674;23.282;2022-07-30T03:14:23;94582.91;;;24.20;57.51
6393;BME280;3229;42.674;23.282;2022-07-30T03:16:55;94596.69;;;24.27;58.06
6393;BME280;3229;42.674;23.282;2022-07-30T03:19:24;94621.63;;;24.41;57.83
6393;BME280;3229;42.674;23.282;2022-07-30T03:21:56;94627.09;;;24.40;57.43
6393;BME280;3229;42.674;23.282;2022-07-30T03:24:26;94612.56;;;24.25;57.76
6393;BME280;3229;42.674;23.282;2022-07-30T03:26:54;94554.47;;;23.88;57.71
6393;BME280;3229;42.674;23.282;2022-07-30T03:29:23;94625.75;;;24.31;57.77
6393;BME280;3229;42.674;23.282;2022-07-30T03:31:52;94628.84;;;24.27;57.86
6393;BME280;3229;42.674;23.282;2022-07-30T03:34:20;94630.88;;;24.25;58.13
6393;BME280;3229;42.674;23.282;2022-07-30T03:36:47;94632.13;;;24.23;58.32
6393;BME280;3229;42.674;23.282;2022-07-30T03:39:15;94635.19;;;24.20;58.43
6393;BME280;3229;42.674;23.282;2022-07-30T03:41:45;94537.84;;;23.52;58.46
6393;BME280;3229;42.674;23.282;2022-07-30T03:44:13;94630.94;;;24.07;58.68
6393;BME280;3229;42.674;23.282;2022-07-30T03:46:41;94558.66;;;23.59;59.00
6393;BME280;3229;42.674;23.282;2022-07-30T03:49:09;94527.69;;;23.33;59.05
6393;BME280;3229;42.674;23.282;2022-07-30T03:51:36;94490.91;;;23.04;59.00
6393;BME280;3229;42.674;23.282;2022-07-30T03:54:03;94572.56;;;23.53;59.18
6393;BME280;3229;42.674;23.282;2022-07-30T03:56:34;94640.69;;;24.00;59.39
6393;BME280;3229;42.674;23.282;2022-07-30T03:59:03;94650.94;;;24.01;59.46
6393;BME280;3229;42.674;23.282;2022-07-30T04:01:30;94654.91;;;24.04;59.27
6393;BME280;3229;42.674;23.282;2022-07-30T04:04:03;94628.16;;;23.90;59.53
6393;BME280;3229;42.674;23.282;2022-07-30T04:06:31;94646.13;;;23.98;59.20
6393;BME280;3229;42.674;23.282;2022-07-30T04:09:00;94656.34;;;24.00;59.47
6393;BME280;3229;42.674;23.282;2022-07-30T04:11:27;94659.19;;;23.98;59.34
6393;BME280;3229;42.674;23.282;2022-07-30T04:13:54;94634.28;;;23.84;59.42
6393;BME280;3229;42.674;23.282;2022-07-30T04:16:30;94656.34;;;24.00;59.20
6393;BME280;3229;42.674;23.282;2022-07-30T04:19:00;94590.53;;;23.61;59.01
6393;BME280;3229;42.674;23.282;2022-07-30T04:21:29;94637.25;;;23.88;59.19
6393;BME280;3229;42.674;23.282;2022-07-30T04:23:58;94665.94;;;24.06;58.72
6393;BME280;3229;42.674;23.282;2022-07-30T04:26:27;94673.41;;;24.02;59.23
6393;BME280;3229;42.674;23.282;2022-07-30T04:28:54;94662.97;;;24.02;59.72
6393;BME280;3229;42.674;23.282;2022-07-30T04:31:23;94654.53;;;24.00;59.65
6393;BME280;3229;42.674;23.282;2022-07-30T04:33:50;94659.56;;;24.02;59.78
6393;BME280;3229;42.674;23.282;2022-07-30T04:36:17;94611.94;;;23.70;59.64
6393;BME280;3229;42.674;23.282;2022-07-30T04:38:44;94671.72;;;24.08;59.53
6393;BME280;3229;42.674;23.282;2022-07-30T04:41:11;94663.09;;;24.08;59.31
6393;BME280;3229;42.674;23.282;2022-07-30T04:43:38;94670.25;;;24.12;58.75
6393;BME280;3229;42.674;23.282;2022-07-30T04:46:05;94677.91;;;24.14;58.59
6393;BME280;3229;42.674;23.282;2022-07-30T04:48:33;94570.28;;;23.45;58.44
6393;BME280;3229;42.674;23.282;2022-07-30T04:51:02;94539.94;;;23.32;58.01
6393;BME280;3229;42.674;23.282;2022-07-30T04:53:31;94682.91;;;24.15;58.19
6393;BME280;3229;42.674;23.282;2022-07-30T04:56:00;94670.97;;;24.19;57.88
6393;BME280;3229;42.674;23.282;2022-07-30T04:58:28;94645.25;;;24.04;58.20
6393;BME280;3229;42.674;23.282;2022-07-30T05:00:57;94589.59;;;23.74;58.46
6393;BME280;3229;42.674;23.282;2022-07-30T05:03:25;94643.69;;;24.15;58.72
6393;BME280;3229;42.674;23.282;2022-07-30T05:05:54;94628.09;;;24.09;58.85
6393;BME280;3229;42.674;23.282;2022-07-30T05:08:22;94467.13;;;23.12;58.61
6393;BME280;3229;42.674;23.282;2022-07-30T05:10:49;94543.34;;;23.63;58.59
6393;BME280;3229;42.674;23.282;2022-07-30T05:13:16;94525.84;;;23.63;58.86
6393;BME280;3229;42.674;23.282;2022-07-30T05:15:43;94657.00;;;24.44;57.84
6393;BME280;3229;42.674;23.282;2022-07-30T05:18:10;94662.22;;;24.44;57.73
6393;BME280;3229;42.674;23.282;2022-07-30T05:20:37;94653.72;;;24.30;57.86
6393;BME280;3229;42.674;23.282;2022-07-30T05:23:06;94653.63;;;24.37;58.12
6393;BME280;3229;42.674;23.282;2022-07-30T05:25:33;94511.84;;;23.46;57.75
6393;BME280;3229;42.674;23.282;2022-07-30T05:27:59;94623.66;;;24.39;57.93
6393;BME280;3229;42.674;23.282;2022-07-30T05:30:26;94595.50;;;24.11;56.92
6393;BME280;3229;42.674;23.282;2022-07-30T05:32:53;94664.16;;;24.60;57.45
6393;BME280;3229;42.674;23.282;2022-07-30T05:35:20;94628.03;;;24.57;57.75
6393;BME280;3229;42.674;23.282;2022-07-30T05:37:47;94658.41;;;24.93;57.67
6393;BME280;3229;42.674;23.282;2022-07-30T05:40:16;94665.81;;;25.08;56.97
6393;BME280;3229;42.674;23.282;2022-07-30T05:42:43;94609.38;;;24.77;56.06
6393;BME280;3229;42.674;23.282;2022-07-30T05:45:10;94659.09;;;25.12;55.82
6393;BME280;3229;42.674;23.282;2022-07-30T05:47:37;94664.53;;;25.34;56.59
6393;BME280;3229;42.674;23.282;2022-07-30T05:50:04;94634.84;;;25.28;56.17
6393;BME280;3229;42.674;23.282;2022-07-30T05:52:32;94593.44;;;25.14;56.17
6393;BME280;3229;42.674;23.282;2022-07-30T05:54:59;94564.09;;;25.12;56.15
6393;BME280;3229;42.674;23.282;2022-07-30T05:57:28;94665.38;;;25.87;55.47
6393;BME280;3229;42.674;23.282;2022-07-30T05:59:55;94667.66;;;25.83;54.42
6393;BME280;3229;42.674;23.282;2022-07-30T06:02:22;94660.06;;;25.98;55.16
6393;BME280;3229;42.674;23.282;2022-07-30T06:04:51;94442.66;;;24.72;54.44
6393;BME280;3229;42.674;23.282;2022-07-30T06:07:18;94573.72;;;25.63;54.60
6393;BME280;3229;42.674;23.282;2022-07-30T06:09:46;94619.25;;;26.02;54.42
6393;BME280;3229;42.674;23.282;2022-07-30T06:12:13;94618.66;;;26.12;54.27
6393;BME280;3229;42.674;23.282;2022-07-30T06:14:42;94554.66;;;25.80;53.84
6393;BME280;3229;42.674;23.282;2022-07-30T06:17:09;94679.81;;;26.63;53.39
6393;BME280;3229;42.674;23.282;2022-07-30T06:19:36;94618.16;;;26.44;53.92
6393;BME280;3229;42.674;23.282;2022-07-30T06:22:03;94671.69;;;26.98;53.84
6393;BME280;3229;42.674;23.282;2022-07-30T06:24:31;94635.00;;;26.82;53.10
6393;BME280;3229;42.674;23.282;2022-07-30T06:26:58;94607.16;;;26.81;52.41
6393;BME280;3229;42.674;23.282;2022-07-30T06:29:26;94673.13;;;27.23;51.88
6393;BME280;3229;42.674;23.282;2022-07-30T06:31:54;94629.16;;;27.13;51.53
6393;BME280;3229;42.674;23.282;2022-07-30T06:34:21;94661.38;;;27.47;51.22
6393;BME280;3229;42.674;23.282;2022-07-30T06:36:48;94661.34;;;27.64;50.89
6393;BME280;3229;42.674;23.282;2022-07-30T06:39:15;94665.03;;;27.85;50.52
6393;BME280;3229;42.674;23.282;2022-07-30T06:41:43;94638.53;;;27.92;51.13
6393;BME280;3229;42.674;23.282;2022-07-30T06:44:11;94653.38;;;28.30;49.98
6393;BME280;3229;42.674;23.282;2022-07-30T06:46:37;94647.25;;;28.46;48.90
6393;BME280;3229;42.674;23.282;2022-07-30T06:49:06;94545.03;;;28.01;48.65
6393;BME280;3229;42.674;23.282;2022-07-30T06:51:32;94614.50;;;28.69;48.19
6393;BME280;3229;42.674;23.282;2022-07-30T06:53:59;94636.66;;;29.11;46.44
6393;BME280;3229;42.674;23.282;2022-07-30T06:56:26;94507.78;;;28.46;46.63
6393;BME280;3229;42.674;23.282;2022-07-30T06:58:53;94632.69;;;29.56;46.21
6393;BME280;3229;42.674;23.282;2022-07-30T07:01:20;94577.81;;;29.47;45.81
6393;BME280;3229;42.674;23.282;2022-07-30T07:03:49;94576.84;;;29.59;45.12
6393;BME280;3229;42.674;23.282;2022-07-30T07:06:18;94598.00;;;29.99;44.65
6393;BME280;3229;42.674;23.282;2022-07-30T07:08:45;94629.22;;;30.38;44.75
6393;BME280;3229;42.674;23.282;2022-07-30T07:11:14;94527.59;;;29.85;44.55
6393;BME280;3229;42.674;23.282;2022-07-30T07:13:41;94538.94;;;30.06;44.38
6393;BME280;3229;42.674;23.282;2022-07-30T07:16:08;94622.63;;;30.71;43.41
6393;BME280;3229;42.674;23.282;2022-07-30T07:18:36;94529.19;;;30.27;43.75
6393;BME280;3229;42.674;23.282;2022-07-30T07:21:03;94580.66;;;30.75;43.08
6393;BME280;3229;42.674;23.282;2022-07-30T07:23:32;94573.53;;;30.70;42.82
6393;BME280;3229;42.674;23.282;2022-07-30T07:25:59;94621.28;;;31.05;42.84
6393;BME280;3229;42.674;23.282;2022-07-30T07:28:26;94625.47;;;31.16;42.73
6393;BME280;3229;42.674;23.282;2022-07-30T07:30:54;94499.38;;;30.41;42.68
6393;BME280;3229;42.674;23.282;2022-07-30T07:33:21;94607.75;;;31.27;42.65
6393;BME280;3229;42.674;23.282;2022-07-30T07:35:50;94419.97;;;30.12;42.04
6393;BME280;3229;42.674;23.282;2022-07-30T07:38:18;94630.69;;;31.57;42.51
6393;BME280;3229;42.674;23.282;2022-07-30T07:40:47;94539.38;;;31.10;42.93
6393;BME280;3229;42.674;23.282;2022-07-30T07:43:14;94499.00;;;30.94;42.51
6393;BME280;3229;42.674;23.282;2022-07-30T07:45:43;94626.31;;;31.91;41.66
6393;BME280;3229;42.674;23.282;2022-07-30T07:48:12;94626.53;;;32.00;41.86
6393;BME280;3229;42.674;23.282;2022-07-30T07:50:39;94634.09;;;32.12;41.08
6393;BME280;3229;42.674;23.282;2022-07-30T07:53:06;94602.34;;;32.12;40.90
6393;BME280;3229;42.674;23.282;2022-07-30T07:55:33;94632.13;;;32.33;41.21
6393;BME280;3229;42.674;23.282;2022-07-30T07:58:01;94596.97;;;32.27;40.70
6393;BME280;3229;42.674;23.282;2022-07-30T08:00:28;94389.91;;;30.98;40.27
6393;BME280;3229;42.674;23.282;2022-07-30T08:02:55;94439.13;;;31.34;40.41
6393;BME280;3229;42.674;23.282;2022-07-30T08:05:22;94604.53;;;32.44;39.83
6393;BME280;3229;42.674;23.282;2022-07-30T08:07:49;94627.25;;;32.50;39.70
6393;BME280;3229;42.674;23.282;2022-07-30T08:10:16;94621.91;;;32.55;39.67
6393;BME280;3229;42.674;23.282;2022-07-30T08:12:43;94520.16;;;31.98;40.13
6393;BME280;3229;42.674;23.282;2022-07-30T08:15:14;94615.75;;;32.65;40.41
6393;BME280;3229;42.674;23.282;2022-07-30T08:17:42;94609.28;;;32.76;39.88
6393;BME280;3229;42.674;23.282;2022-07-30T08:20:11;94481.31;;;31.93;39.88
6393;BME280;3229;42.674;23.282;2022-07-30T08:22:39;94612.06;;;32.90;39.21
6393;BME280;3229;42.674;23.282;2022-07-30T08:25:07;94578.81;;;32.79;39.33
6393;BME280;3229;42.674;23.282;2022-07-30T08:27:34;94578.44;;;32.90;39.09
6393;BME280;3229;42.674;23.282;2022-07-30T08:30:03;94550.47;;;32.79;38.15
6393;BME280;3229;42.674;23.282;2022-07-30T08:32:32;94556.69;;;32.93;37.96
6393;BME280;3229;42.674;23.282;2022-07-30T08:35:00;94560.31;;;33.03;37.74
6393;BME280;3229;42.674;23.282;2022-07-30T08:37:27;94478.19;;;32.50;37.99
6393;BME280;3229;42.674;23.282;2022-07-30T08:39:55;94437.97;;;32.18;38.20
6393;BME280;3229;42.674;23.282;2022-07-30T08:42:22;94546.84;;;32.99;37.80
6393;BME280;3229;42.674;23.282;2022-07-30T08:44:51;94494.72;;;32.65;38.21
6393;BME280;3229;42.674;23.282;2022-07-30T08:47:22;94566.16;;;33.24;37.63
6393;BME280;3229;42.674;23.282;2022-07-30T08:49:52;94551.66;;;33.16;37.52
6393;BME280;3229;42.674;23.282;2022-07-30T08:52:20;94556.63;;;33.22;37.33
6393;BME280;3229;42.674;23.282;2022-07-30T08:54:47;94592.84;;;33.56;37.28
6393;BME280;3229;42.674;23.282;2022-07-30T08:57:24;94589.06;;;33.62;36.90
6393;BME280;3229;42.674;23.282;2022-07-30T08:59:52;94582.31;;;33.70;37.25
6393;BME280;3229;42.674;23.282;2022-07-30T09:02:19;94583.03;;;33.76;36.86
6393;BME280;3229;42.674;23.282;2022-07-30T09:04:46;94494.31;;;33.25;36.12
6393;BME280;3229;42.674;23.282;2022-07-30T09:07:15;94577.47;;;33.77;36.00
6393;BME280;3229;42.674;23.282;2022-07-30T09:09:42;94576.31;;;33.83;35.57
6393;BME280;3229;42.674;23.282;2022-07-30T09:12:34;94567.63;;;33.78;35.72
6393;BME280;3229;42.674;23.282;2022-07-30T09:15:03;94518.22;;;33.44;36.34
6393;BME280;3229;42.674;23.282;2022-07-30T09:17:44;94560.97;;;33.80;36.38
6393;BME280;3229;42.674;23.282;2022-07-30T09:20:11;94542.94;;;33.58;36.51
6393;BME280;3229;42.674;23.282;2022-07-30T09:22:43;94551.50;;;33.74;35.92
6393;BME280;3229;42.674;23.282;2022-07-30T09:25:10;94529.13;;;33.61;35.52
6393;BME280;3229;42.674;23.282;2022-07-30T09:27:44;94525.84;;;33.69;35.21
6393;BME280;3229;42.674;23.282;2022-07-30T09:30:12;94359.88;;;32.69;35.28
6393;BME280;3229;42.674;23.282;2022-07-30T09:32:49;94548.84;;;33.93;35.48
6393;BME280;3229;42.674;23.282;2022-07-30T09:35:16;94543.13;;;33.86;35.67
6393;BME280;3229;42.674;23.282;2022-07-30T09:37:46;94514.50;;;33.64;35.92
6393;BME280;3229;42.674;23.282;2022-07-30T09:40:15;94398.00;;;32.92;35.21
6393;BME280;3229;42.674;23.282;2022-07-30T09:42:43;94540.94;;;33.88;36.07
6393;BME280;3229;42.674;23.282;2022-07-30T09:45:12;94522.25;;;33.79;35.33
6393;BME280;3229;42.674;23.282;2022-07-30T09:47:41;94332.78;;;32.53;36.04
6393;BME280;3229;42.674;23.282;2022-07-30T09:50:11;94541.66;;;33.93;35.81
6393;BME280;3229;42.674;23.282;2022-07-30T09:52:39;94474.84;;;33.54;35.55
6393;BME280;3229;42.674;23.282;2022-07-30T09:55:09;94495.50;;;33.57;35.17
6393;BME280;3229;42.674;23.282;2022-07-30T09:57:53;94533.50;;;33.90;35.34
6393;BME280;3229;42.674;23.282;2022-07-30T10:00:22;94498.09;;;33.62;35.01
6393;BME280;3229;42.674;23.282;2022-07-30T10:02:50;94523.97;;;33.51;35.75
6393;BME280;3229;42.674;23.282;2022-07-30T10:05:18;94460.75;;;33.15;35.84
6393;BME280;3229;42.674;23.282;2022-07-30T10:07:48;94525.13;;;33.64;35.54
6393;BME280;3229;42.674;23.282;2022-07-30T10:10:20;94497.38;;;33.56;35.58
6393;BME280;3229;42.674;23.282;2022-07-30T10:12:50;94506.47;;;33.69;35.87
6393;BME280;3229;42.674;23.282;2022-07-30T10:15:19;94374.41;;;32.71;35.91
6393;BME280;3229;42.674;23.282;2022-07-30T10:17:47;94484.75;;;33.48;36.18
6393;BME280;3229;42.674;23.282;2022-07-30T10:20:15;94514.50;;;33.64;36.08
6393;BME280;3229;42.674;23.282;2022-07-30T10:22:43;94386.44;;;32.83;36.20
6393;BME280;3229;42.674;23.282;2022-07-30T10:25:10;94470.75;;;33.42;35.87
6393;BME280;3229;42.674;23.282;2022-07-30T10:27:39;94329.44;;;32.47;36.01
6393;BME280;3229;42.674;23.282;2022-07-30T10:30:07;94486.38;;;33.63;35.94
6393;BME280;3229;42.674;23.282;2022-07-30T10:32:37;94476.88;;;33.62;36.03
6393;BME280;3229;42.674;23.282;2022-07-30T10:35:05;94488.47;;;33.66;35.27
6393;BME280;3229;42.674;23.282;2022-07-30T10:37:33;94453.78;;;33.43;35.54
6393;BME280;3229;42.674;23.282;2022-07-30T10:40:06;94356.53;;;32.82;35.58
6393;BME280;3229;42.674;23.282;2022-07-30T10:42:54;94487.78;;;33.60;35.46
6393;BME280;3229;42.674;23.282;2022-07-30T10:45:33;94431.75;;;33.24;36.27
6393;BME280;3229;42.674;23.282;2022-07-30T10:48:07;94475.06;;;33.57;35.90
6393;BME280;3229;42.674;23.282;2022-07-30T10:50:48;94439.47;;;33.44;36.42
6393;BME280;3229;42.674;23.282;2022-07-30T10:53:37;94425.53;;;33.34;36.06
6393;BME280;3229;42.674;23.282;2022-07-30T10:56:12;94470.78;;;33.61;36.20
6393;BME280;3229;42.674;23.282;2022-07-30T10:59:03;94421.88;;;33.30;36.55
6393;BME280;3229;42.674;23.282;2022-07-30T11:02:07;94462.53;;;33.63;36.53
6393;BME280;3229;42.674;23.282;2022-07-30T11:04:35;94440.13;;;33.55;35.98
6393;BME280;3229;42.674;23.282;2022-07-30T11:07:32;94357.84;;;33.04;35.81
6393;BME280;3229;42.674;23.282;2022-07-30T11:10:01;94312.34;;;32.78;35.46
6393;BME280;3229;42.674;23.282;2022-07-30T11:12:51;94441.81;;;33.65;35.78
6393;BME280;3229;42.674;23.282;2022-07-30T11:15:20;94433.56;;;33.66;35.65
6393;BME280;3229;42.674;23.282;2022-07-30T11:18:01;94415.25;;;33.51;35.74
6393;BME280;3229;42.674;23.282;2022-07-30T11:20:34;94432.91;;;33.75;35.54
6393;BME280;3229;42.674;23.282;2022-07-30T11:23:09;94436.56;;;33.79;35.36
6393;BME280;3229;42.674;23.282;2022-07-30T11:25:40;94351.44;;;33.24;35.48
6393;BME280;3229;42.674;23.282;2022-07-30T11:28:32;94429.56;;;33.69;35.91
6393;BME280;3229;42.674;23.282;2022-07-30T11:31:26;94411.56;;;33.66;35.68
6393;BME280;3229;42.674;23.282;2022-07-30T11:34:23;94420.72;;;33.74;35.31
6393;BME280;3229;42.674;23.282;2022-07-30T11:37:03;94281.72;;;32.90;35.38
6393;BME280;3229;42.674;23.282;2022-07-30T11:40:08;94408.03;;;33.70;35.88
6393;BME280;3229;42.674;23.282;2022-07-30T11:42:44;94398.81;;;33.68;35.86
6393;BME280;3229;42.674;23.282;2022-07-30T11:45:24;94357.63;;;33.38;35.62
6393;BME280;3229;42.674;23.282;2022-07-30T11:47:59;94402.63;;;33.76;35.44
6393;BME280;3229;42.674;23.282;2022-07-30T11:50:30;94236.75;;;32.66;35.67
6393;BME280;3229;42.674;23.282;2022-07-30T11:53:04;94393.31;;;33.78;35.93
6393;BME280;3229;42.674;23.282;2022-07-30T11:55:50;94369.69;;;33.63;35.63
6393;BME280;3229;42.674;23.282;2022-07-30T11:58:23;94240.69;;;32.69;35.95
6393;BME280;3229;42.674;23.282;2022-07-30T12:00:52;94376.97;;;33.71;35.73
6393;BME280;3229;42.674;23.282;2022-07-30T12:03:22;94377.28;;;33.69;35.81
6393;BME280;3229;42.674;23.282;2022-07-30T12:05:51;94382.59;;;33.69;36.81
6393;BME280;3229;42.674;23.282;2022-07-30T12:08:19;94277.19;;;32.91;36.85
6393;BME280;3229;42.674;23.282;2022-07-30T12:10:55;94380.59;;;33.42;36.40
6393;BME280;3229;42.674;23.282;2022-07-30T12:13:22;94376.22;;;33.33;36.89
6393;BME280;3229;42.674;23.282;2022-07-30T12:15:49;94373.53;;;33.38;37.13
6393;BME280;3229;42.674;23.282;2022-07-30T12:18:25;94374.75;;;33.27;37.23
6393;BME280;3229;42.674;23.282;2022-07-30T12:20:54;94361.47;;;33.27;37.34
6393;BME280;3229;42.674;23.282;2022-07-30T12:23:21;94344.16;;;33.15;37.78
6393;BME280;3229;42.674;23.282;2022-07-30T12:25:48;94355.81;;;33.33;38.00
6393;BME280;3229;42.674;23.282;2022-07-30T12:28:19;94356.53;;;33.20;37.53
6393;BME280;3229;42.674;23.282;2022-07-30T12:30:46;94315.72;;;33.02;37.35
6393;BME280;3229;42.674;23.282;2022-07-30T12:33:15;94353.44;;;33.32;37.46
6393;BME280;3229;42.674;23.282;2022-07-30T12:35:44;94351.31;;;33.34;37.34
6393;BME280;3229;42.674;23.282;2022-07-30T12:38:12;94300.75;;;33.11;37.23
6393;BME280;3229;42.674;23.282;2022-07-30T12:40:53;94289.13;;;33.07;37.54
6393;BME280;3229;42.674;23.282;2022-07-30T12:43:41;94311.91;;;33.27;37.78
6393;BME280;3229;42.674;23.282;2022-07-30T12:46:18;94319.69;;;33.37;37.70
6393;BME280;3229;42.674;23.282;2022-07-30T12:48:52;94293.56;;;33.31;37.85
6393;BME280;3229;42.674;23.282;2022-07-30T12:51:22;94267.38;;;33.10;37.54
6393;BME280;3229;42.674;23.282;2022-07-30T12:53:49;94293.78;;;33.34;37.34
6393;BME280;3229;42.674;23.282;2022-07-30T12:56:19;94288.56;;;33.29;37.36
6393;BME280;3229;42.674;23.282;2022-07-30T12:58:46;94303.72;;;33.42;37.73
6393;BME280;3229;42.674;23.282;2022-07-30T13:01:14;94292.28;;;33.42;38.40
6393;BME280;3229;42.674;23.282;2022-07-30T13:03:41;94293.16;;;33.37;37.98
6393;BME280;3229;42.674;23.282;2022-07-30T13:06:14;94186.38;;;32.53;38.09
6393;BME280;3229;42.674;23.282;2022-07-30T13:08:48;94289.69;;;33.23;37.75
6393;BME280;3229;42.674;23.282;2022-07-30T13:11:17;94281.44;;;33.25;38.15
6393;BME280;3229;42.674;23.282;2022-07-30T13:13:44;94286.34;;;33.17;38.00
6393;BME280;3229;42.674;23.282;2022-07-30T13:16:14;94275.84;;;33.12;38.02
6393;BME280;3229;42.674;23.282;2022-07-30T13:18:40;94249.41;;;33.07;37.20
6393;BME280;3229;42.674;23.282;2022-07-30T13:21:08;94274.38;;;33.20;37.56
6393;BME280;3229;42.674;23.282;2022-07-30T13:23:36;94272.88;;;33.14;37.45
6393;BME280;3229;42.674;23.282;2022-07-30T13:26:06;94272.59;;;33.15;37.71
6393;BME280;3229;42.674;23.282;2022-07-30T13:28:34;94273.25;;;33.07;37.79